sensor_id;sensor_type;location;lat;lon;timestamp;temperature;humidity
1329;DHT22;658;48.820;9.354;2022-10-22T00:01:56;23.10;56.80
1329;DHT22;658;48.820;9.354;2022-10-22T00:05:57;23.00;56.80
1329;DHT22;658;48.820;9.354;2022-10-22T00:09:58;23.00;56.80
1329;DHT22;658;48.820;9.354;2022-10-22T00:13:58;23.00;56.90
1329;DHT22;658;48.820;9.354;2022-10-22T00:17:59;23.00;56.90
1329;DHT22;658;48.820;9.354;2022-10-22T00:21:59;23.00;57.00
1329;DHT22;658;48.820;9.354;2022-10-22T00:26:00;23.00;57.00
1329;DHT22;658;48.820;9.354;2022-10-22T00:30:01;23.00;57.10
1329;DHT22;658;48.820;9.354;2022-10-22T00:34:01;23.00;57.10
1329;DHT22;658;48.820;9.354;2022-10-22T00:38:02;23.00;57.10
1329;DHT22;658;48.820;9.354;2022-10-22T00:42:03;22.90;57.20
1329;DHT22;658;48.820;9.354;2022-10-22T00:46:04;22.90;57.10
1329;DHT22;658;48.820;9.354;2022-10-22T00:50:12;22.90;57.10
1329;DHT22;658;48.820;9.354;2022-10-22T00:54:13;22.90;57.20
1329;DHT22;658;48.820;9.354;2022-10-22T00:58:14;22.90;57.20
1329;DHT22;658;48.820;9.354;2022-10-22T01:02:15;22.90;57.30
1329;DHT22;658;48.820;9.354;2022-10-22T01:06:27;22.90;57.30
1329;DHT22;658;48.820;9.354;2022-10-22T01:10:56;22.80;57.30
1329;DHT22;658;48.820;9.354;2022-10-22T01:19:39;22.80;57.60
1329;DHT22;658;48.820;9.354;2022-10-22T01:32:20;22.70;57.50
1329;DHT22;658;48.820;9.354;2022-10-22T01:36:21;22.70;57.60
1329;DHT22;658;48.820;9.354;2022-10-22T01:40:23;22.70;57.60
1329;DHT22;658;48.820;9.354;2022-10-22T01:44:33;22.70;57.70
1329;DHT22;658;48.820;9.354;2022-10-22T01:52:57;22.70;58.20
1329;DHT22;658;48.820;9.354;2022-10-22T02:06:03;22.70;57.70
1329;DHT22;658;48.820;9.354;2022-10-22T02:10:07;22.60;57.70
1329;DHT22;658;48.820;9.354;2022-10-22T02:14:10;22.60;57.70
1329;DHT22;658;48.820;9.354;2022-10-22T02:18:12;22.50;57.70
1329;DHT22;658;48.820;9.354;2022-10-22T02:22:13;22.50;57.80
1329;DHT22;658;48.820;9.354;2022-10-22T02:26:24;22.50;57.60
1329;DHT22;658;48.820;9.354;2022-10-22T02:30:27;22.60;57.90
1329;DHT22;658;48.820;9.354;2022-10-22T02:34:30;22.50;57.80
1329;DHT22;658;48.820;9.354;2022-10-22T02:38:32;22.50;57.80
1329;DHT22;658;48.820;9.354;2022-10-22T02:42:34;22.50;57.80
1329;DHT22;658;48.820;9.354;2022-10-22T02:46:39;22.50;57.80
1329;DHT22;658;48.820;9.354;2022-10-22T02:50:41;22.50;57.90
1329;DHT22;658;48.820;9.354;2022-10-22T02:54:42;22.40;57.90
1329;DHT22;658;48.820;9.354;2022-10-22T02:58:42;22.50;58.00
1329;DHT22;658;48.820;9.354;2022-10-22T03:02:43;22.50;57.90
1329;DHT22;658;48.820;9.354;2022-10-22T03:06:43;22.50;57.90
1329;DHT22;658;48.820;9.354;2022-10-22T03:10:44;22.50;57.90
1329;DHT22;658;48.820;9.354;2022-10-22T03:14:45;22.40;57.90
1329;DHT22;658;48.820;9.354;2022-10-22T03:18:45;22.40;57.80
1329;DHT22;658;48.820;9.354;2022-10-22T03:22:46;22.50;57.90
1329;DHT22;658;48.820;9.354;2022-10-22T03:26:49;22.40;57.90
1329;DHT22;658;48.820;9.354;2022-10-22T03:30:51;22.40;57.90
1329;DHT22;658;48.820;9.354;2022-10-22T03:34:51;22.40;57.90
1329;DHT22;658;48.820;9.354;2022-10-22T03:38:52;22.40;58.00
1329;DHT22;658;48.820;9.354;2022-10-22T03:42:53;22.40;58.00
1329;DHT22;658;48.820;9.354;2022-10-22T03:46:54;22.40;58.00
1329;DHT22;658;48.820;9.354;2022-10-22T03:50:54;22.30;58.00
1329;DHT22;658;48.820;9.354;2022-10-22T03:54:55;22.40;58.00
1329;DHT22;658;48.820;9.354;2022-10-22T03:58:57;22.30;57.90
1329;DHT22;658;48.820;9.354;2022-10-22T04:02:58;22.30;58.00
1329;DHT22;658;48.820;9.354;2022-10-22T04:06:59;22.40;58.00
1329;DHT22;658;48.820;9.354;2022-10-22T04:11:00;22.40;58.00
1329;DHT22;658;48.820;9.354;2022-10-22T04:15:00;22.40;57.90
1329;DHT22;658;48.820;9.354;2022-10-22T04:19:01;22.40;58.00
1329;DHT22;658;48.820;9.354;2022-10-22T04:23:02;22.30;57.90
1329;DHT22;658;48.820;9.354;2022-10-22T04:27:02;22.30;58.00
1329;DHT22;658;48.820;9.354;2022-10-22T04:31:29;22.30;57.90
1329;DHT22;658;48.820;9.354;2022-10-22T04:35:29;22.30;57.90
1329;DHT22;658;48.820;9.354;2022-10-22T04:39:30;22.30;58.00
1329;DHT22;658;48.820;9.354;2022-10-22T04:43:31;22.30;57.90
1329;DHT22;658;48.820;9.354;2022-10-22T04:47:31;22.30;57.90
1329;DHT22;658;48.820;9.354;2022-10-22T04:51:32;22.30;58.00
1329;DHT22;658;48.820;9.354;2022-10-22T04:55:33;22.30;58.10
1329;DHT22;658;48.820;9.354;2022-10-22T04:59:33;22.30;58.10
1329;DHT22;658;48.820;9.354;2022-10-22T05:03:34;22.30;58.00
1329;DHT22;658;48.820;9.354;2022-10-22T05:07:34;22.30;58.00
1329;DHT22;658;48.820;9.354;2022-10-22T05:11:39;22.30;58.10
1329;DHT22;658;48.820;9.354;2022-10-22T05:15:45;22.30;58.00
1329;DHT22;658;48.820;9.354;2022-10-22T05:19:46;22.30;58.00
1329;DHT22;658;48.820;9.354;2022-10-22T05:23:48;22.30;58.00
1329;DHT22;658;48.820;9.354;2022-10-22T05:27:49;22.30;58.00
1329;DHT22;658;48.820;9.354;2022-10-22T05:31:50;22.30;58.00
1329;DHT22;658;48.820;9.354;2022-10-22T05:35:51;22.30;58.00
1329;DHT22;658;48.820;9.354;2022-10-22T05:39:52;22.30;58.00
1329;DHT22;658;48.820;9.354;2022-10-22T05:43:57;22.30;57.90
1329;DHT22;658;48.820;9.354;2022-10-22T05:47:58;22.30;58.00
1329;DHT22;658;48.820;9.354;2022-10-22T05:51:59;22.30;58.10
1329;DHT22;658;48.820;9.354;2022-10-22T05:56:04;22.20;58.10
1329;DHT22;658;48.820;9.354;2022-10-22T06:00:06;22.20;57.90
1329;DHT22;658;48.820;9.354;2022-10-22T06:04:09;22.20;58.00
1329;DHT22;658;48.820;9.354;2022-10-22T06:08:13;22.20;57.90
1329;DHT22;658;48.820;9.354;2022-10-22T06:12:14;22.30;58.20
1329;DHT22;658;48.820;9.354;2022-10-22T06:16:14;22.20;58.00
1329;DHT22;658;48.820;9.354;2022-10-22T06:20:15;22.20;58.10
1329;DHT22;658;48.820;9.354;2022-10-22T06:24:16;22.20;58.00
1329;DHT22;658;48.820;9.354;2022-10-22T06:28:17;22.20;58.00
1329;DHT22;658;48.820;9.354;2022-10-22T06:32:17;22.20;58.00
1329;DHT22;658;48.820;9.354;2022-10-22T06:36:20;22.20;57.90
1329;DHT22;658;48.820;9.354;2022-10-22T06:40:21;22.20;57.90
1329;DHT22;658;48.820;9.354;2022-10-22T06:44:21;22.20;57.90
1329;DHT22;658;48.820;9.354;2022-10-22T06:48:22;22.20;58.00
1329;DHT22;658;48.820;9.354;2022-10-22T06:52:22;22.20;58.00
1329;DHT22;658;48.820;9.354;2022-10-22T06:56:25;22.20;57.90
1329;DHT22;658;48.820;9.354;2022-10-22T07:00:26;22.20;58.00
1329;DHT22;658;48.820;9.354;2022-10-22T07:04:27;22.20;57.90
1329;DHT22;658;48.820;9.354;2022-10-22T07:08:28;22.20;57.90
1329;DHT22;658;48.820;9.354;2022-10-22T07:12:29;22.30;57.90
1329;DHT22;658;48.820;9.354;2022-10-22T07:16:29;22.30;57.80
1329;DHT22;658;48.820;9.354;2022-10-22T07:20:30;22.30;57.70
1329;DHT22;658;48.820;9.354;2022-10-22T07:24:31;22.30;57.70
1329;DHT22;658;48.820;9.354;2022-10-22T07:28:32;22.30;57.70
1329;DHT22;658;48.820;9.354;2022-10-22T07:32:32;22.30;57.70
1329;DHT22;658;48.820;9.354;2022-10-22T07:36:33;22.40;57.60
1329;DHT22;658;48.820;9.354;2022-10-22T07:40:34;22.40;57.70
1329;DHT22;658;48.820;9.354;2022-10-22T07:44:35;22.40;73.20
1329;DHT22;658;48.820;9.354;2022-10-22T07:48:36;22.30;72.80
1329;DHT22;658;48.820;9.354;2022-10-22T07:52:37;22.40;72.70
1329;DHT22;658;48.820;9.354;2022-10-22T07:56:37;22.40;72.20
1329;DHT22;658;48.820;9.354;2022-10-22T08:00:38;22.40;71.70
1329;DHT22;658;48.820;9.354;2022-10-22T08:04:39;22.40;71.40
1329;DHT22;658;48.820;9.354;2022-10-22T08:08:40;22.40;71.00
1329;DHT22;658;48.820;9.354;2022-10-22T08:12:42;22.50;70.60
1329;DHT22;658;48.820;9.354;2022-10-22T08:16:43;22.50;69.80
1329;DHT22;658;48.820;9.354;2022-10-22T08:20:44;22.50;69.90
1329;DHT22;658;48.820;9.354;2022-10-22T08:24:44;22.60;70.10
1329;DHT22;658;48.820;9.354;2022-10-22T08:28:45;22.60;69.30
1329;DHT22;658;48.820;9.354;2022-10-22T08:32:46;22.70;69.20
1329;DHT22;658;48.820;9.354;2022-10-22T08:36:47;22.70;68.80
1329;DHT22;658;48.820;9.354;2022-10-22T08:40:53;22.80;68.60
1329;DHT22;658;48.820;9.354;2022-10-22T08:45:10;22.80;68.60
1329;DHT22;658;48.820;9.354;2022-10-22T08:49:23;22.90;68.10
1329;DHT22;658;48.820;9.354;2022-10-22T08:53:40;23.00;68.20
1329;DHT22;658;48.820;9.354;2022-10-22T09:02:00;23.10;67.90
1329;DHT22;658;48.820;9.354;2022-10-22T09:06:16;23.20;68.20
1329;DHT22;658;48.820;9.354;2022-10-22T09:10:21;23.20;67.80
1329;DHT22;658;48.820;9.354;2022-10-22T09:14:25;23.30;67.50
1329;DHT22;658;48.820;9.354;2022-10-22T09:27:24;23.60;66.60
1329;DHT22;658;48.820;9.354;2022-10-22T09:31:26;23.70;66.40
1329;DHT22;658;48.820;9.354;2022-10-22T09:35:33;23.80;65.90
1329;DHT22;658;48.820;9.354;2022-10-22T09:39:42;23.80;65.70
1329;DHT22;658;48.820;9.354;2022-10-22T09:43:47;23.90;65.50
1329;DHT22;658;48.820;9.354;2022-10-22T09:47:48;23.90;66.10
1329;DHT22;658;48.820;9.354;2022-10-22T09:51:57;24.10;65.10
1329;DHT22;658;48.820;9.354;2022-10-22T09:55:59;24.10;65.20
1329;DHT22;658;48.820;9.354;2022-10-22T10:00:00;24.10;65.10
1329;DHT22;658;48.820;9.354;2022-10-22T10:04:13;24.20;64.90
1329;DHT22;658;48.820;9.354;2022-10-22T10:08:15;24.30;65.30
1329;DHT22;658;48.820;9.354;2022-10-22T10:12:42;24.50;65.50
1329;DHT22;658;48.820;9.354;2022-10-22T10:29:35;25.20;64.50
1329;DHT22;658;48.820;9.354;2022-10-22T10:34:09;25.30;63.90
1329;DHT22;658;48.820;9.354;2022-10-22T10:38:19;25.50;63.70
1329;DHT22;658;48.820;9.354;2022-10-22T10:55:18;26.00;61.80
1329;DHT22;658;48.820;9.354;2022-10-22T11:04:03;26.30;60.90
1329;DHT22;658;48.820;9.354;2022-10-22T11:12:30;28.50;48.80
1329;DHT22;658;48.820;9.354;2022-10-22T11:17:19;28.10;48.20
1329;DHT22;658;48.820;9.354;2022-10-22T11:25:26;26.80;50.70
1329;DHT22;658;48.820;9.354;2022-10-22T11:29:33;26.70;51.10
1329;DHT22;658;48.820;9.354;2022-10-22T11:37:46;29.70;45.70
1329;DHT22;658;48.820;9.354;2022-10-22T11:41:47;30.40;44.90
1329;DHT22;658;48.820;9.354;2022-10-22T11:45:49;31.00;43.30
1329;DHT22;658;48.820;9.354;2022-10-22T11:54:43;31.90;43.60
1329;DHT22;658;48.820;9.354;2022-10-22T11:58:46;32.50;46.60
1329;DHT22;658;48.820;9.354;2022-10-22T12:03:13;32.90;37.60
1329;DHT22;658;48.820;9.354;2022-10-22T12:07:54;33.20;36.90
1329;DHT22;658;48.820;9.354;2022-10-22T12:12:13;31.90;38.10
1329;DHT22;658;48.820;9.354;2022-10-22T12:16:15;30.80;41.90
1329;DHT22;658;48.820;9.354;2022-10-22T12:20:16;29.40;44.10
1329;DHT22;658;48.820;9.354;2022-10-22T12:24:19;30.00;42.40
1329;DHT22;658;48.820;9.354;2022-10-22T12:28:21;31.50;38.70
1329;DHT22;658;48.820;9.354;2022-10-22T12:32:23;31.90;37.60
1329;DHT22;658;48.820;9.354;2022-10-22T12:36:29;32.30;36.00
1329;DHT22;658;48.820;9.354;2022-10-22T12:40:33;30.80;38.90
1329;DHT22;658;48.820;9.354;2022-10-22T12:44:34;29.80;41.10
1329;DHT22;658;48.820;9.354;2022-10-22T12:48:39;29.10;42.10
1329;DHT22;658;48.820;9.354;2022-10-22T12:52:40;28.50;43.60
1329;DHT22;658;48.820;9.354;2022-10-22T12:56:41;28.10;44.00
1329;DHT22;658;48.820;9.354;2022-10-22T13:00:43;27.90;44.40
1329;DHT22;658;48.820;9.354;2022-10-22T13:05:23;27.80;44.30
1329;DHT22;658;48.820;9.354;2022-10-22T13:09:40;27.70;44.50
1329;DHT22;658;48.820;9.354;2022-10-22T13:13:42;29.00;42.20
1329;DHT22;658;48.820;9.354;2022-10-22T13:17:46;30.60;38.60
1329;DHT22;658;48.820;9.354;2022-10-22T13:21:48;31.50;36.80
1329;DHT22;658;48.820;9.354;2022-10-22T13:26:14;32.50;35.40
1329;DHT22;658;48.820;9.354;2022-10-22T13:30:31;33.00;34.20
1329;DHT22;658;48.820;9.354;2022-10-22T13:34:32;33.40;33.50
1329;DHT22;658;48.820;9.354;2022-10-22T13:38:34;33.50;33.50
1329;DHT22;658;48.820;9.354;2022-10-22T13:42:35;33.50;33.40
1329;DHT22;658;48.820;9.354;2022-10-22T13:46:36;33.40;33.40
1329;DHT22;658;48.820;9.354;2022-10-22T13:50:42;33.70;33.30
1329;DHT22;658;48.820;9.354;2022-10-22T13:54:42;33.40;33.50
1329;DHT22;658;48.820;9.354;2022-10-22T13:58:44;33.50;33.50
1329;DHT22;658;48.820;9.354;2022-10-22T14:02:47;32.00;35.90
1329;DHT22;658;48.820;9.354;2022-10-22T14:06:49;31.60;36.70
1329;DHT22;658;48.820;9.354;2022-10-22T14:10:50;32.30;35.80
1329;DHT22;658;48.820;9.354;2022-10-22T14:14:50;32.80;35.00
1329;DHT22;658;48.820;9.354;2022-10-22T14:18:51;32.70;35.50
1329;DHT22;658;48.820;9.354;2022-10-22T14:22:52;32.50;35.90
1329;DHT22;658;48.820;9.354;2022-10-22T14:26:53;32.90;35.10
1329;DHT22;658;48.820;9.354;2022-10-22T14:30:54;33.20;34.80
1329;DHT22;658;48.820;9.354;2022-10-22T14:34:55;33.30;34.70
1329;DHT22;658;48.820;9.354;2022-10-22T14:38:56;33.30;34.60
1329;DHT22;658;48.820;9.354;2022-10-22T14:42:57;33.50;34.30
1329;DHT22;658;48.820;9.354;2022-10-22T14:46:58;33.60;34.20
1329;DHT22;658;48.820;9.354;2022-10-22T14:50:58;33.60;34.30
1329;DHT22;658;48.820;9.354;2022-10-22T14:54:59;33.50;34.50
1329;DHT22;658;48.820;9.354;2022-10-22T14:58:59;33.40;35.00
1329;DHT22;658;48.820;9.354;2022-10-22T15:03:00;33.10;35.30
1329;DHT22;658;48.820;9.354;2022-10-22T15:07:01;32.70;35.80
1329;DHT22;658;48.820;9.354;2022-10-22T15:11:02;31.70;38.00
1329;DHT22;658;48.820;9.354;2022-10-22T15:15:04;30.80;39.80
1329;DHT22;658;48.820;9.354;2022-10-22T15:19:05;30.20;41.50
1329;DHT22;658;48.820;9.354;2022-10-22T15:23:06;29.80;42.30
1329;DHT22;658;48.820;9.354;2022-10-22T15:27:07;29.30;43.30
1329;DHT22;658;48.820;9.354;2022-10-22T15:31:12;29.00;44.10
1329;DHT22;658;48.820;9.354;2022-10-22T15:35:13;28.70;44.70
1329;DHT22;658;48.820;9.354;2022-10-22T15:39:13;28.50;45.30
1329;DHT22;658;48.820;9.354;2022-10-22T15:43:14;28.30;45.70
1329;DHT22;658;48.820;9.354;2022-10-22T15:47:17;28.10;46.10
1329;DHT22;658;48.820;9.354;2022-10-22T15:51:18;28.00;46.60
1329;DHT22;658;48.820;9.354;2022-10-22T15:55:19;27.80;47.00
1329;DHT22;658;48.820;9.354;2022-10-22T15:59:20;27.60;47.50
1329;DHT22;658;48.820;9.354;2022-10-22T16:03:20;27.40;47.70
1329;DHT22;658;48.820;9.354;2022-10-22T16:07:21;27.30;48.00
1329;DHT22;658;48.820;9.354;2022-10-22T16:11:22;27.20;48.30
1329;DHT22;658;48.820;9.354;2022-10-22T16:15:23;27.10;48.60
1329;DHT22;658;48.820;9.354;2022-10-22T16:19:23;27.00;48.50
1329;DHT22;658;48.820;9.354;2022-10-22T16:23:24;26.90;49.00
1329;DHT22;658;48.820;9.354;2022-10-22T16:27:25;26.80;48.50
1329;DHT22;658;48.820;9.354;2022-10-22T16:31:26;26.70;48.70
1329;DHT22;658;48.820;9.354;2022-10-22T16:35:27;26.60;48.60
1329;DHT22;658;48.820;9.354;2022-10-22T16:39:28;26.60;48.60
1329;DHT22;658;48.820;9.354;2022-10-22T16:43:28;26.50;48.70
1329;DHT22;658;48.820;9.354;2022-10-22T16:47:29;26.40;48.80
1329;DHT22;658;48.820;9.354;2022-10-22T16:51:30;26.40;49.30
1329;DHT22;658;48.820;9.354;2022-10-22T16:55:34;26.40;48.90
1329;DHT22;658;48.820;9.354;2022-10-22T16:59:35;26.30;49.00
1329;DHT22;658;48.820;9.354;2022-10-22T17:03:36;26.20;49.10
1329;DHT22;658;48.820;9.354;2022-10-22T17:07:37;26.10;49.20
1329;DHT22;658;48.820;9.354;2022-10-22T17:11:38;26.10;49.20
1329;DHT22;658;48.820;9.354;2022-10-22T17:15:38;26.10;49.30
1329;DHT22;658;48.820;9.354;2022-10-22T17:19:39;26.00;49.30
1329;DHT22;658;48.820;9.354;2022-10-22T17:23:40;25.90;49.40
1329;DHT22;658;48.820;9.354;2022-10-22T17:27:43;25.70;51.60
1329;DHT22;658;48.820;9.354;2022-10-22T17:31:43;25.80;51.00
1329;DHT22;658;48.820;9.354;2022-10-22T17:35:44;25.90;50.90
1329;DHT22;658;48.820;9.354;2022-10-22T17:39:45;25.90;50.60
1329;DHT22;658;48.820;9.354;2022-10-22T17:43:46;25.90;50.70
1329;DHT22;658;48.820;9.354;2022-10-22T17:47:46;26.00;50.80
1329;DHT22;658;48.820;9.354;2022-10-22T17:51:47;26.00;50.70
1329;DHT22;658;48.820;9.354;2022-10-22T17:55:48;26.00;50.80
1329;DHT22;658;48.820;9.354;2022-10-22T17:59:48;26.00;50.80
1329;DHT22;658;48.820;9.354;2022-10-22T18:03:50;26.00;50.90
1329;DHT22;658;48.820;9.354;2022-10-22T18:07:55;26.00;51.00
1329;DHT22;658;48.820;9.354;2022-10-22T18:11:56;26.00;51.00
1329;DHT22;658;48.820;9.354;2022-10-22T18:15:56;25.90;50.90
1329;DHT22;658;48.820;9.354;2022-10-22T18:19:57;25.80;51.20
1329;DHT22;658;48.820;9.354;2022-10-22T18:23:58;25.70;51.40
1329;DHT22;658;48.820;9.354;2022-10-22T18:27:58;25.60;51.70
1329;DHT22;658;48.820;9.354;2022-10-22T18:31:59;25.50;51.80
1329;DHT22;658;48.820;9.354;2022-10-22T18:36:08;25.40;51.90
1329;DHT22;658;48.820;9.354;2022-10-22T18:40:10;25.30;52.00
1329;DHT22;658;48.820;9.354;2022-10-22T18:44:12;25.30;52.10
1329;DHT22;658;48.820;9.354;2022-10-22T18:48:15;25.30;52.30
1329;DHT22;658;48.820;9.354;2022-10-22T18:52:16;25.20;52.30
1329;DHT22;658;48.820;9.354;2022-10-22T18:56:17;25.10;52.40
1329;DHT22;658;48.820;9.354;2022-10-22T19:00:18;25.10;52.50
1329;DHT22;658;48.820;9.354;2022-10-22T19:04:18;25.00;52.60
1329;DHT22;658;48.820;9.354;2022-10-22T19:08:19;25.00;52.60
1329;DHT22;658;48.820;9.354;2022-10-22T19:12:20;24.90;52.70
1329;DHT22;658;48.820;9.354;2022-10-22T19:16:24;24.90;52.70
1329;DHT22;658;48.820;9.354;2022-10-22T19:20:26;24.80;52.70
1329;DHT22;658;48.820;9.354;2022-10-22T19:24:26;24.80;52.80
1329;DHT22;658;48.820;9.354;2022-10-22T19:28:27;24.80;52.80
1329;DHT22;658;48.820;9.354;2022-10-22T19:32:28;24.80;52.90
1329;DHT22;658;48.820;9.354;2022-10-22T19:36:30;24.80;52.80
1329;DHT22;658;48.820;9.354;2022-10-22T19:40:31;24.80;52.90
1329;DHT22;658;48.820;9.354;2022-10-22T19:44:32;24.70;52.80
1329;DHT22;658;48.820;9.354;2022-10-22T19:48:36;24.70;53.10
1329;DHT22;658;48.820;9.354;2022-10-22T19:52:37;24.70;53.10
1329;DHT22;658;48.820;9.354;2022-10-22T19:56:38;24.80;53.00
1329;DHT22;658;48.820;9.354;2022-10-22T20:00:40;24.90;52.80
1329;DHT22;658;48.820;9.354;2022-10-22T20:04:41;24.90;52.60
1329;DHT22;658;48.820;9.354;2022-10-22T20:08:45;25.00;52.70
1329;DHT22;658;48.820;9.354;2022-10-22T20:12:46;25.00;52.50
1329;DHT22;658;48.820;9.354;2022-10-22T20:16:47;25.10;52.50
1329;DHT22;658;48.820;9.354;2022-10-22T20:20:48;25.10;52.30
1329;DHT22;658;48.820;9.354;2022-10-22T20:24:49;25.20;52.60
1329;DHT22;658;48.820;9.354;2022-10-22T20:28:50;25.20;52.50
1329;DHT22;658;48.820;9.354;2022-10-22T20:32:51;25.20;52.70
1329;DHT22;658;48.820;9.354;2022-10-22T20:36:55;25.30;52.50
1329;DHT22;658;48.820;9.354;2022-10-22T20:41:00;25.30;52.40
1329;DHT22;658;48.820;9.354;2022-10-22T20:45:01;25.30;52.40
1329;DHT22;658;48.820;9.354;2022-10-22T20:49:08;25.30;52.40
1329;DHT22;658;48.820;9.354;2022-10-22T20:53:09;25.30;52.40
1329;DHT22;658;48.820;9.354;2022-10-22T20:57:11;25.30;52.40
1329;DHT22;658;48.820;9.354;2022-10-22T21:01:14;25.40;52.40
1329;DHT22;658;48.820;9.354;2022-10-22T21:05:20;25.40;52.40
1329;DHT22;658;48.820;9.354;2022-10-22T21:09:21;25.40;52.30
1329;DHT22;658;48.820;9.354;2022-10-22T21:13:22;25.40;52.30
1329;DHT22;658;48.820;9.354;2022-10-22T21:17:22;25.40;52.30
1329;DHT22;658;48.820;9.354;2022-10-22T21:21:23;25.40;52.40
1329;DHT22;658;48.820;9.354;2022-10-22T21:25:24;25.30;52.60
1329;DHT22;658;48.820;9.354;2022-10-22T21:29:24;25.40;52.50
1329;DHT22;658;48.820;9.354;2022-10-22T21:33:25;25.40;52.50
1329;DHT22;658;48.820;9.354;2022-10-22T21:37:26;25.40;52.40
1329;DHT22;658;48.820;9.354;2022-10-22T21:41:29;25.40;52.40
1329;DHT22;658;48.820;9.354;2022-10-22T21:45:33;25.30;52.50
1329;DHT22;658;48.820;9.354;2022-10-22T21:49:37;25.20;52.90
1329;DHT22;658;48.820;9.354;2022-10-22T21:53:37;25.00;53.10
1329;DHT22;658;48.820;9.354;2022-10-22T21:57:38;25.00;53.20
1329;DHT22;658;48.820;9.354;2022-10-22T22:01:38;24.90;53.40
1329;DHT22;658;48.820;9.354;2022-10-22T22:05:49;24.80;53.30
1329;DHT22;658;48.820;9.354;2022-10-22T22:09:50;24.80;53.40
1329;DHT22;658;48.820;9.354;2022-10-22T22:13:52;24.70;53.50
1329;DHT22;658;48.820;9.354;2022-10-22T22:17:53;24.70;53.60
1329;DHT22;658;48.820;9.354;2022-10-22T22:21:54;24.70;53.70
1329;DHT22;658;48.820;9.354;2022-10-22T22:25:58;24.60;53.80
1329;DHT22;658;48.820;9.354;2022-10-22T22:29:59;24.50;53.80
1329;DHT22;658;48.820;9.354;2022-10-22T22:34:10;24.50;53.90
1329;DHT22;658;48.820;9.354;2022-10-22T22:38:14;24.50;53.90
1329;DHT22;658;48.820;9.354;2022-10-22T22:42:14;24.50;53.90
1329;DHT22;658;48.820;9.354;2022-10-22T22:46:15;24.40;53.90
1329;DHT22;658;48.820;9.354;2022-10-22T22:50:16;24.40;53.90
1329;DHT22;658;48.820;9.354;2022-10-22T22:54:17;24.40;54.00
1329;DHT22;658;48.820;9.354;2022-10-22T22:58:17;24.40;53.90
1329;DHT22;658;48.820;9.354;2022-10-22T23:02:18;24.40;53.90
1329;DHT22;658;48.820;9.354;2022-10-22T23:06:19;24.30;54.00
1329;DHT22;658;48.820;9.354;2022-10-22T23:10:19;24.30;54.00
1329;DHT22;658;48.820;9.354;2022-10-22T23:14:20;24.30;54.10
1329;DHT22;658;48.820;9.354;2022-10-22T23:18:21;24.20;54.00
1329;DHT22;658;48.820;9.354;2022-10-22T23:22:21;24.20;54.10
1329;DHT22;658;48.820;9.354;2022-10-22T23:26:25;24.10;54.10
1329;DHT22;658;48.820;9.354;2022-10-22T23:30:26;24.10;54.20
1329;DHT22;658;48.820;9.354;2022-10-22T23:34:28;24.10;54.20
1329;DHT22;658;48.820;9.354;2022-10-22T23:38:29;24.00;54.30
1329;DHT22;658;48.820;9.354;2022-10-22T23:42:30;24.00;54.30
1329;DHT22;658;48.820;9.354;2022-10-22T23:46:30;24.00;54.40
1329;DHT22;658;48.820;9.354;2022-10-22T23:50:35;24.00;54.40
1329;DHT22;658;48.820;9.354;2022-10-22T23:54:36;24.00;54.40
1329;DHT22;658;48.820;9.354;2022-10-22T23:58:37;23.90;54.40
